.
WxDataArchive / Data Records for 2009-08-26
2009-08-25 August 2009 2009-08-27

Data Records for Wednesday, 26 August 2009

Time	Temp	Chill	HIndex	Humid	Dewpt	 Wind 	HiWind	WindDir	Rain 	Barom 
-----	----	-----	------	-----	-----	------	------	-------	-----	----- 
00:00	66.6	66.6	66.6	87	62.6	0	0	---	0.00	30.046 
00:05	66.3	66.3	66.3	87	62.3	0	0	---	0.00	30.046 
00:10	66.1	66.1	66.1	87	62.1	0	0	---	0.00	30.046 
00:15	65.8	65.8	65.8	88	62.1	0	0	---	0.00	30.039 
00:20	65.8	65.8	65.8	88	62.1	0	0	---	0.00	30.039 
00:25	65.6	65.6	65.6	88	61.9	0	0	---	0.00	30.039 
00:30	65.3	65.3	65.3	89	62.0	0	0	---	0.00	30.041 
00:35	65.3	65.3	65.3	89	62.0	0	0	---	0.00	30.041 
00:40	65.0	65.0	65.0	89	61.7	0	0	---	0.00	30.041 
00:45	64.8	64.8	64.8	90	61.8	0	0	---	0.00	30.046 
00:50	64.7	64.7	64.7	90	61.7	0	0	---	0.00	30.046 
00:55	64.5	64.5	64.5	90	61.5	0	0	---	0.00	30.046 
01:00	64.3	64.3	64.3	91	61.6	0	0	---	0.00	30.058 
01:05	64.2	64.2	64.2	91	61.5	0	0	---	0.00	30.058 
01:10	64.0	64.0	64.0	91	61.3	0	0	---	0.00	30.058 
01:15	63.9	63.9	63.9	91	61.2	0	0	---	0.00	30.061 
01:20	63.9	63.9	63.9	91	61.2	0	0	---	0.00	30.061 
01:25	63.7	63.7	63.7	92	61.3	0	0	---	0.00	30.061 
01:30	63.7	63.7	63.7	92	61.3	0	0	---	0.00	30.060 
01:35	63.5	63.5	63.5	92	61.1	0	0	---	0.00	30.060 
01:40	63.4	63.4	63.4	92	61.0	0	0	---	0.00	30.060 
01:45	63.1	63.1	63.1	92	60.7	0	0	---	0.00	30.057 
01:50	62.9	62.9	62.9	92	60.5	0	0	---	0.00	30.057 
01:55	62.9	62.9	62.9	92	60.5	0	0	---	0.00	30.057 
02:00	62.7	62.7	62.7	92	60.3	0	0	---	0.00	30.062 
02:05	62.7	62.7	62.7	93	60.6	0	0	---	0.00	30.062 
02:10	62.6	62.6	62.6	93	60.5	0	0	---	0.00	30.062 
02:15	62.6	62.6	62.6	93	60.5	0	0	---	0.00	30.062 
02:20	62.6	62.6	62.6	93	60.5	0	0	---	0.00	30.062 
02:25	62.4	62.4	62.4	93	60.3	0	0	---	0.00	30.062 
02:30	62.4	62.4	62.4	93	60.3	0	0	---	0.00	30.061 
02:35	62.4	62.4	62.4	94	60.6	0	0	---	0.00	30.061 
02:40	62.4	62.4	62.4	94	60.6	0	0	---	0.00	30.061 
02:45	62.4	62.4	62.4	94	60.6	0	0	---	0.00	30.063 
02:50	62.3	62.3	62.3	94	60.5	0	0	---	0.00	30.063 
02:55	62.1	62.1	62.1	94	60.3	0	0	---	0.00	30.063 
03:00	62.0	62.0	62.0	94	60.2	0	0	---	0.00	30.066 
03:05	61.8	61.8	61.8	94	60.1	0	0	---	0.00	30.066 
03:10	61.6	61.6	61.6	94	59.9	0	0	---	0.00	30.066 
03:15	61.6	61.6	61.6	94	59.9	0	0	---	0.00	30.068 
03:20	61.6	61.6	61.6	94	59.9	0	0	---	0.00	30.068 
03:25	61.5	61.5	61.5	94	59.8	0	0	---	0.00	30.068 
03:30	61.3	61.3	61.3	94	59.6	0	0	---	0.00	30.064 
03:35	61.3	61.3	61.3	94	59.6	0	0	---	0.00	30.064 
03:40	61.3	61.3	61.3	95	59.9	0	0	---	0.00	30.064 
03:45	61.3	61.3	61.3	95	59.9	0	0	---	0.00	30.062 
03:50	61.3	61.3	61.3	95	59.9	0	0	---	0.00	30.062 
03:55	61.3	61.3	61.3	95	59.9	0	0	---	0.00	30.062 
04:00	61.3	61.3	61.3	95	59.9	0	0	---	0.00	30.060 
04:05	61.2	61.2	61.2	95	59.8	0	0	---	0.00	30.060 
04:10	61.2	61.2	61.2	95	59.8	0	0	---	0.00	30.060 
04:15	61.2	61.2	61.2	95	59.8	0	0	---	0.00	30.054 
04:20	61.3	61.3	61.3	95	59.9	0	0	---	0.00	30.054 
04:25	61.2	61.2	61.2	95	59.8	0	0	---	0.00	30.054 
04:30	61.3	61.3	61.3	96	60.1	0	0	---	0.00	30.050 
04:35	61.3	61.3	61.3	96	60.1	0	0	---	0.00	30.050 
04:40	61.5	61.5	61.5	96	60.3	0	0	---	0.00	30.050 
04:45	61.6	61.6	61.6	96	60.4	0	0	---	0.00	30.048 
04:50	61.6	61.6	61.6	96	60.4	0	0	---	0.00	30.048 
04:55	61.6	61.6	61.6	96	60.4	0	0	---	0.00	30.048 
05:00	61.6	61.6	61.6	96	60.4	0	0	---	0.00	30.049 
05:05	61.6	61.6	61.6	96	60.4	0	0	---	0.00	30.049 
05:10	61.8	61.8	61.8	96	60.6	0	0	---	0.00	30.049 
05:15	61.8	61.8	61.8	96	60.6	0	0	---	0.00	30.048 
05:20	62.0	62.0	62.0	96	60.8	0	0	---	0.00	30.048 
05:25	62.0	62.0	62.0	96	60.8	0	0	---	0.00	30.048 
05:30	62.1	62.1	62.1	96	60.9	0	1	248	0.00	30.045 
05:35	62.0	62.0	62.0	96	60.8	0	1	248	0.00	30.045 
05:40	62.1	62.1	62.1	96	60.9	0	1	248	0.00	30.045 
05:45	62.1	62.1	62.1	96	60.9	0	1	248	0.00	30.042 
05:50	62.4	62.4	62.4	96	61.2	0	1	248	0.00	30.042 
05:55	62.4	62.4	62.4	96	61.2	0	2	248	0.00	30.042 
06:00	62.7	62.7	62.7	96	61.5	0	3	248	0.00	30.042 
06:05	62.7	62.7	62.7	96	61.5	0	2	248	0.00	30.042 
06:10	62.7	62.7	62.7	96	61.5	0	1	248	0.00	30.042 
06:15	62.7	62.7	62.7	96	61.5	0	1	248	0.00	30.048 
06:20	62.7	62.7	62.7	96	61.5	0	0	---	0.00	30.048 
06:25	62.7	62.7	62.7	96	61.5	0	0	---	0.00	30.048 
06:30	62.7	62.7	62.7	96	61.5	0	1	248	0.00	30.039 
06:35	62.7	62.7	62.7	96	61.5	0	1	248	0.00	30.039 
06:40	62.7	62.7	62.7	96	61.5	0	1	248	0.00	30.039 
06:45	62.9	62.9	62.9	96	61.7	0	1	248	0.00	30.048 
06:50	62.9	62.9	62.9	96	61.7	0	0	---	0.00	30.048 
06:55	62.9	62.9	62.9	96	61.7	0	0	---	0.00	30.048 
07:00	62.7	62.7	62.7	96	61.5	0	0	---	0.00	30.058 
07:05	62.6	62.6	62.6	96	61.4	0	0	---	0.00	30.058 
07:10	62.4	62.4	62.4	96	61.2	0	0	---	0.00	30.058 
07:15	62.3	62.3	62.3	96	61.1	0	0	---	0.00	30.067 
07:20	62.3	62.3	62.3	96	61.1	0	0	---	0.00	30.067 
07:25	62.3	62.3	62.3	96	61.1	0	0	---	0.00	30.067 
07:30	62.3	62.3	62.3	96	61.1	0	0	---	0.00	30.073 
07:35	62.4	62.4	62.4	96	61.2	0	0	---	0.00	30.073 
07:40	62.6	62.6	62.6	96	61.4	0	0	---	0.00	30.073 
07:45	62.7	62.7	62.7	96	61.5	0	0	---	0.00	30.078 
07:50	62.9	62.9	62.9	96	61.7	0	0	---	0.00	30.078 
07:55	63.1	63.1	63.1	96	61.9	0	0	---	0.00	30.078 
08:00	63.1	63.1	63.1	96	61.9	0	0	---	0.00	30.079 
08:05	63.2	63.2	63.2	96	62.0	0	1	248	0.00	30.079 
08:10	63.4	63.4	63.4	96	62.2	0	0	---	0.00	30.079 
08:15	63.5	63.5	63.5	96	62.3	0	0	---	0.00	30.084 
08:20	63.9	63.9	63.9	96	62.7	0	0	---	0.00	30.084 
08:25	64.3	64.3	64.3	96	63.1	0	1	248	0.00	30.084 
08:30	64.7	64.7	64.7	96	63.5	0	1	248	0.00	30.084 
08:35	65.2	65.2	65.2	96	64.0	0	1	248	0.00	30.084 
08:40	65.5	65.5	65.5	96	64.3	0	1	248	0.00	30.084 
08:45	65.8	65.8	65.8	96	64.6	0	1	248	0.00	30.080 
08:50	66.0	66.0	66.0	95	64.5	0	3	248	0.00	30.080 
08:55	66.1	66.1	66.1	95	64.6	0	1	248	0.00	30.080 
09:00	66.3	66.3	66.3	94	64.5	0	1	248	0.00	30.081 
09:05	66.4	66.4	66.4	93	64.3	0	2	248	0.00	30.081 
09:10	66.8	66.8	66.8	92	64.4	0	1	248	0.00	30.081 
09:15	67.1	67.1	67.1	92	64.7	0	1	248	0.00	30.078 
09:20	67.4	67.4	67.4	91	64.7	0	1	248	0.00	30.078 
09:25	67.6	67.6	67.6	90	64.6	0	1	248	0.00	30.078 
09:30	67.8	67.8	67.8	89	64.4	0	1	248	0.00	30.072 
09:35	68.1	68.1	68.1	88	64.4	0	1	248	0.00	30.072 
09:40	68.3	68.3	68.3	88	64.6	0	1	248	0.00	30.072 
09:45	68.6	68.6	68.6	87	64.6	0	1	248	0.00	30.077 
09:50	68.8	68.8	68.8	86	64.4	0	1	248	0.00	30.077 
09:55	68.9	68.9	68.9	86	64.5	0	2	248	0.00	30.077 
10:00	69.3	69.3	69.3	86	64.9	0	1	248	0.00	30.079 
10:05	69.8	69.8	69.8	85	65.1	0	1	248	0.00	30.079 
10:10	70.1	70.1	70.1	84	65.0	0	2	248	0.00	30.079 
10:15	70.8	70.8	70.8	84	65.7	0	1	248	0.00	30.083 
10:20	71.6	71.6	71.6	82	65.8	0	2	248	0.00	30.083 
10:25	72.1	72.1	72.1	80	65.6	0	2	248	0.00	30.083 
10:30	72.5	72.5	72.5	79	65.6	0	2	248	0.00	30.083 
10:35	72.8	72.8	72.8	78	65.5	0	2	248	0.00	30.083 
10:40	73.0	73.0	73.0	77	65.3	0	1	248	0.00	30.083 
10:45	73.2	73.2	73.2	78	65.9	0	1	248	0.00	30.083 
10:50	73.5	73.5	73.5	78	66.2	0	1	248	0.00	30.083 
10:55	73.9	73.9	73.9	76	65.8	0	2	270	0.00	30.083 
11:00	74.2	74.2	74.2	75	65.8	1	3	270	0.00	30.084 
11:05	74.2	74.2	74.2	74	65.4	1	2	315	0.00	30.084 
11:10	74.6	74.6	74.6	73	65.4	2	4	315	0.00	30.084 
11:15	74.9	74.9	74.9	73	65.6	1	4	315	0.00	30.091 
11:20	74.6	74.6	74.6	73	65.4	2	5	270	0.00	30.091 
11:25	74.2	74.2	74.2	74	65.4	1	3	292	0.00	30.091 
11:30	74.7	74.7	74.7	74	65.8	1	3	292	0.00	30.091 
11:35	75.3	75.3	76.7	73	66.0	1	3	292	0.00	30.091 
11:40	75.4	75.4	76.9	72	65.7	1	3	292	0.00	30.091 
11:45	75.6	75.6	77.2	71	65.5	1	3	292	0.00	30.089 
11:50	76.0	76.0	77.7	69	65.1	2	4	292	0.00	30.089 
11:55	76.5	76.5	78.2	70	66.0	1	5	315	0.00	30.089 
12:00	76.3	76.3	78.0	69	65.4	2	5	270	0.00	30.084 
12:05	75.8	75.8	77.4	70	65.3	1	2	315	0.00	30.084 
12:10	76.5	76.5	78.1	73	67.2	1	3	315	0.00	30.084 
12:15	77.2	77.2	79.0	69	66.2	0	2	315	0.00	30.085 
12:20	77.7	77.7	79.6	68	66.3	1	3	315	0.00	30.085 
12:25	77.6	77.6	79.5	68	66.2	1	3	315	0.00	30.085 
12:30	77.6	77.6	79.5	69	66.6	1	3	292	0.00	30.083 
12:35	77.6	77.6	79.5	67	65.8	1	3	292	0.00	30.083 
12:40	77.4	77.4	79.2	67	65.6	2	4	270	0.00	30.083 
12:45	77.2	77.2	79.0	67	65.4	1	3	270	0.00	30.084 
12:50	77.0	77.0	78.8	67	65.2	1	2	270	0.00	30.084 
12:55	77.4	77.4	79.3	70	66.8	0	2	270	0.00	30.084 
13:00	77.7	77.7	79.6	66	65.4	1	3	270	0.00	30.077 
13:05	78.1	78.1	80.1	69	67.1	1	3	292	0.00	30.077 
13:10	78.3	78.3	80.2	65	65.5	0	2	292	0.00	30.077 
13:15	77.9	77.9	79.7	65	65.2	1	3	292	0.00	30.080 
13:20	77.9	77.9	79.7	65	65.2	0	1	292	0.00	30.080 
13:25	78.3	78.3	80.2	64	65.1	1	3	292	0.00	30.080 
13:30	78.6	78.6	80.4	63	64.9	1	3	292	0.00	30.078 
13:35	78.8	78.8	80.6	62	64.7	2	3	292	0.00	30.078 
13:40	79.0	79.0	81.0	65	66.2	1	3	292	0.00	30.078 
13:45	79.8	79.8	82.1	65	67.0	1	4	292	0.00	30.079 
13:50	80.3	80.3	82.4	62	66.1	1	3	292	0.00	30.079 
13:55	80.7	80.7	83.2	64	67.4	0	2	315	0.00	30.079 
14:00	80.9	80.9	82.9	60	65.7	1	4	315	0.00	30.074 
14:05	80.7	80.7	82.8	61	66.0	1	2	292	0.00	30.074 
14:10	80.1	80.1	82.0	61	65.4	2	3	292	0.00	30.074 
14:15	80.3	80.3	82.3	61	65.6	1	5	270	0.00	30.074 
14:20	80.7	80.7	82.5	59	65.0	1	3	270	0.00	30.074 
14:25	80.7	80.7	82.4	58	64.5	1	3	270	0.00	30.074 
14:30	80.3	80.3	81.9	58	64.2	1	2	248	0.00	30.070 
14:35	79.9	79.9	81.7	60	64.7	1	4	270	0.00	30.070 
14:40	79.4	79.4	81.0	59	63.8	1	3	270	0.00	30.070 
14:45	78.8	78.8	80.5	60	63.7	1	3	248	0.00	30.075 
14:50	78.5	78.5	80.2	60	63.4	1	4	248	0.00	30.075 
14:55	78.3	78.3	80.1	62	64.2	1	3	248	0.00	30.075 
15:00	77.9	77.9	79.6	62	63.8	1	3	248	0.00	30.078 
15:05	77.7	77.7	79.4	62	63.6	1	3	248	0.00	30.078 
15:10	77.7	77.7	79.5	64	64.5	0	3	248	0.00	30.078 
15:15	77.6	77.6	79.4	63	64.0	1	3	248	0.00	30.075 
15:20	77.4	77.4	79.2	64	64.2	1	3	248	0.00	30.075 
15:25	77.2	77.2	79.0	65	64.5	1	2	248	0.00	30.075 
15:30	77.2	77.2	79.0	65	64.5	0	1	248	0.00	30.077 
15:35	77.2	77.2	79.0	65	64.5	0	2	248	0.00	30.077 
15:40	77.0	77.0	78.8	67	65.2	0	2	248	0.00	30.077 
15:45	77.0	77.0	78.8	67	65.2	0	2	248	0.00	30.074 
15:50	77.0	77.0	78.8	67	65.2	0	1	248	0.00	30.074 
15:55	77.0	77.0	78.8	66	64.8	1	2	248	0.00	30.074 
16:00	76.8	76.8	78.6	66	64.6	1	3	248	0.00	30.071 
16:05	76.8	76.8	78.6	66	64.6	1	2	248	0.00	30.071 
16:10	76.8	76.8	78.6	67	65.0	0	1	248	0.00	30.071 
16:15	76.8	76.8	78.6	68	65.4	0	1	248	0.00	30.067 
16:20	76.8	76.8	78.6	68	65.4	0	1	248	0.00	30.067 
16:25	76.7	76.7	78.4	69	65.7	0	2	248	0.00	30.067 
16:30	76.7	76.7	78.4	69	65.7	0	2	248	0.00	30.070 
16:35	76.7	76.7	78.5	68	65.3	0	2	248	0.00	30.070 
16:40	76.7	76.7	78.4	69	65.7	0	1	248	0.00	30.070 
16:45	76.7	76.7	78.4	70	66.2	0	0	---	0.00	30.069 
16:50	76.8	76.8	78.6	69	65.8	0	1	248	0.00	30.069 
16:55	76.8	76.8	78.5	70	66.3	0	1	248	0.00	30.069 
17:00	76.8	76.8	78.6	69	65.8	0	1	248	0.00	30.068 
17:05	76.8	76.8	78.6	69	65.8	0	1	248	0.00	30.068 
17:10	76.8	76.8	78.5	70	66.3	0	0	---	0.00	30.068 
17:15	76.7	76.7	78.4	70	66.2	0	1	248	0.00	30.067 
17:20	76.8	76.8	78.5	70	66.3	0	3	248	0.00	30.067 
17:25	77.0	77.0	78.8	68	65.6	1	3	248	0.00	30.067 
17:30	77.0	77.0	78.8	69	66.0	1	2	248	0.00	30.070 
17:35	77.0	77.0	78.8	70	66.4	0	1	248	0.00	30.070 
17:40	77.0	77.0	78.8	70	66.4	0	1	248	0.00	30.070 
17:45	76.8	76.8	78.6	69	65.8	0	2	248	0.00	30.076 
17:50	76.7	76.7	78.4	70	66.2	0	1	248	0.00	30.076 
17:55	76.5	76.5	78.2	69	65.6	1	2	248	0.00	30.076 
18:00	76.3	76.3	78.0	70	65.8	1	2	248	0.00	30.078 
18:05	76.1	76.1	77.8	70	65.6	1	3	248	0.00	30.078 
18:10	76.0	76.0	77.6	71	65.9	0	1	248	0.00	30.078 
18:15	76.0	76.0	77.5	72	66.3	0	1	248	0.00	30.080 
18:20	76.0	76.0	77.5	72	66.3	0	1	248	0.00	30.080 
18:25	75.8	75.8	77.3	72	66.1	0	1	248	0.00	30.080 
18:30	75.6	75.6	77.0	74	66.7	0	2	248	0.00	30.081 
18:35	75.3	75.3	76.4	76	67.2	0	1	248	0.00	30.081 
18:40	74.9	74.9	74.9	77	67.2	0	1	248	0.00	30.081 
18:45	74.7	74.7	74.7	78	67.4	0	1	248	0.00	30.081 
18:50	74.6	74.6	74.6	79	67.6	0	2	270	0.00	30.081 
18:55	74.4	74.4	74.4	79	67.4	0	1	270	0.00	30.081 
19:00	74.2	74.2	74.2	77	66.5	1	2	270	0.00	30.082 
19:05	74.0	74.0	74.0	77	66.3	1	4	270	0.00	30.082 
19:10	73.9	73.9	73.9	77	66.2	0	1	270	0.00	30.082 
19:15	73.7	73.7	73.7	78	66.4	0	1	270	0.00	30.082 
19:20	73.7	73.7	73.7	77	66.0	0	2	270	0.00	30.082 
19:25	73.5	73.5	73.5	76	65.5	0	1	270	0.00	30.082 
19:30	73.3	73.3	73.3	75	64.9	0	3	270	0.00	30.079 
19:35	73.2	73.2	73.2	75	64.8	0	1	270	0.00	30.079 
19:40	73.2	73.2	73.2	76	65.2	0	2	270	0.00	30.079 
19:45	73.0	73.0	73.0	77	65.3	0	3	292	0.00	30.082 
19:50	72.8	72.8	72.8	78	65.5	0	1	292	0.00	30.082 
19:55	72.7	72.7	72.7	81	66.5	0	1	292	0.00	30.082 
20:00	72.5	72.5	72.5	84	67.4	0	1	292	0.00	30.085 
20:05	72.1	72.1	72.1	85	67.3	0	1	292	0.00	30.085 
20:10	71.8	71.8	71.8	87	67.7	1	5	180	0.00	30.085 
20:15	71.5	71.5	71.5	88	67.7	0	1	180	0.00	30.084 
20:20	70.9	70.9	70.9	88	67.2	0	1	180	0.00	30.084 
20:25	70.4	70.4	70.4	88	66.7	0	4	158	0.00	30.084 
20:30	69.9	69.9	69.9	89	66.5	0	4	90	0.00	30.089 
20:35	69.3	69.3	69.3	89	65.9	0	4	135	0.00	30.089 
20:40	68.9	68.9	68.9	90	65.8	0	4	135	0.00	30.089 
20:45	68.6	68.6	68.6	90	65.5	0	3	90	0.00	30.091 
20:50	68.3	68.3	68.3	90	65.2	0	3	135	0.00	30.091 
20:55	68.1	68.1	68.1	91	65.4	0	3	90	0.00	30.091 
21:00	67.8	67.8	67.8	91	65.1	1	3	90	0.00	30.098 
21:05	67.6	67.6	67.6	91	64.9	1	3	112	0.00	30.098 
21:10	67.3	67.3	67.3	91	64.6	2	5	68	0.01	30.098 
21:15	67.1	67.1	67.1	91	64.4	2	5	90	0.00	30.098 
21:20	66.8	66.8	66.8	91	64.1	1	4	112	0.00	30.098 
21:25	66.3	66.3	66.3	90	63.3	1	4	112	0.00	30.098 
21:30	66.1	66.1	66.1	90	63.1	1	4	112	0.00	30.101 
21:35	66.1	66.1	66.1	90	63.1	0	2	112	0.00	30.101 
21:40	66.0	66.0	66.0	90	63.0	1	4	112	0.00	30.101 
21:45	65.8	65.8	65.8	90	62.8	2	5	112	0.00	30.107 
21:50	65.5	65.5	65.5	90	62.5	2	6	90	0.00	30.107 
21:55	65.5	65.5	65.5	91	62.8	1	5	112	0.00	30.107 
22:00	65.5	65.5	65.5	91	62.8	0	2	112	0.00	30.113 
22:05	65.3	65.3	65.3	91	62.6	2	5	112	0.00	30.113 
22:10	65.2	65.2	65.2	91	62.5	2	5	90	0.00	30.113 
22:15	65.2	65.2	65.2	91	62.5	1	4	90	0.00	30.109 
22:20	65.0	65.0	65.0	91	62.3	1	3	90	0.00	30.109 
22:25	65.0	65.0	65.0	91	62.3	1	2	90	0.00	30.109 
22:30	65.0	65.0	65.0	91	62.3	1	3	112	0.00	30.113 
22:35	64.8	64.8	64.8	91	62.1	1	3	112	0.00	30.113 
22:40	64.7	64.7	64.7	91	62.0	1	4	112	0.00	30.113 
22:45	64.7	64.7	64.7	91	62.0	0	2	112	0.00	30.113 
22:50	64.7	64.7	64.7	91	62.0	1	6	112	0.00	30.113 
22:55	64.7	64.7	64.7	91	62.0	0	2	112	0.00	30.113 
23:00	64.5	64.5	64.5	92	62.1	1	3	112	0.00	30.107 
23:05	64.5	64.5	64.5	92	62.1	1	5	90	0.00	30.107 
23:10	64.5	64.5	64.5	92	62.1	0	4	90	0.00	30.107 
23:15	64.5	64.5	64.5	92	62.1	1	4	112	0.00	30.105 
23:20	64.5	64.5	64.5	92	62.1	0	3	68	0.00	30.105 
23:25	64.3	64.3	64.3	92	61.9	1	5	112	0.00	30.105 
23:30	64.3	64.3	64.3	92	61.9	1	2	112	0.00	30.107 
23:35	64.3	64.3	64.3	92	61.9	0	3	112	0.00	30.107 
23:40	64.3	64.3	64.3	92	61.9	1	4	112	0.00	30.107 
23:45	64.3	64.3	64.3	92	61.9	1	4	112	0.00	30.100 
23:50	64.2	64.2	64.2	92	61.8	1	5	112	0.00	30.100 
23:55	64.2	64.2	64.2	92	61.8	1	3	112	0.00	30.100 

CoCoRaHS
IN-AL-39
A2 Web Hosting
Creative Commons License
GoDaddy
search engine by freefind advanced

loaded 2018-11-13 23:27:46 • last modified 2010-11-18 10:43:29
Privacy PolicyDisclaimer
• wx.awcolley.com is powered by PmWiki v.2002016 •
• all content (unless otherwise noted) © 2018 A W Colley